sensor_id;sensor_type;location;lat;lon;timestamp;pressure;altitude;pressure_sealevel;temperature;humidity
37892;BME280;45797;47.466;9.486;2023-03-21T00:00:09;96054.72;;;11.02;61.46
37892;BME280;45797;47.466;9.486;2023-03-21T00:05:10;96059.75;;;10.93;61.92
37892;BME280;45797;47.466;9.486;2023-03-21T00:10:19;96051.06;;;10.79;61.79
37892;BME280;45797;47.466;9.486;2023-03-21T00:15:24;96045.59;;;10.70;61.75
37892;BME280;45797;47.466;9.486;2023-03-21T00:20:33;96044.66;;;10.58;62.17
37892;BME280;45797;47.466;9.486;2023-03-21T00:25:34;96032.19;;;10.49;61.96
37892;BME280;45797;47.466;9.486;2023-03-21T00:30:38;96023.72;;;10.45;62.34
37892;BME280;45797;47.466;9.486;2023-03-21T00:35:40;96019.63;;;10.41;62.42
37892;BME280;45797;47.466;9.486;2023-03-21T00:40:48;96006.84;;;10.37;62.25
37892;BME280;45797;47.466;9.486;2023-03-21T00:45:49;96003.81;;;10.30;62.55
37892;BME280;45797;47.466;9.486;2023-03-21T00:51:13;95991.22;;;10.22;62.16
37892;BME280;45797;47.466;9.486;2023-03-21T00:56:34;95983.28;;;10.24;62.26
37892;BME280;45797;47.466;9.486;2023-03-21T01:01:35;95983.06;;;10.27;62.56
37892;BME280;45797;47.466;9.486;2023-03-21T01:06:41;95981.59;;;10.23;62.07
37892;BME280;45797;47.466;9.486;2023-03-21T01:11:42;95982.00;;;10.17;62.48
37892;BME280;45797;47.466;9.486;2023-03-21T01:16:45;95977.22;;;10.23;62.25
37892;BME280;45797;47.466;9.486;2023-03-21T01:21:51;95975.94;;;10.29;62.22
37892;BME280;45797;47.466;9.486;2023-03-21T01:26:51;95975.66;;;10.34;62.33
37892;BME280;45797;47.466;9.486;2023-03-21T01:31:52;95980.56;;;10.38;61.50
37892;BME280;45797;47.466;9.486;2023-03-21T01:36:52;95989.56;;;10.47;61.80
37892;BME280;45797;47.466;9.486;2023-03-21T01:41:56;95984.66;;;10.55;61.68
37892;BME280;45797;47.466;9.486;2023-03-21T01:47:01;95977.53;;;10.57;61.52
37892;BME280;45797;47.466;9.486;2023-03-21T01:52:31;95964.00;;;10.63;61.43
37892;BME280;45797;47.466;9.486;2023-03-21T01:57:42;95962.94;;;10.66;61.17
37892;BME280;45797;47.466;9.486;2023-03-21T02:02:55;95957.81;;;10.64;61.54
37892;BME280;45797;47.466;9.486;2023-03-21T02:08:22;95956.97;;;10.64;62.06
37892;BME280;45797;47.466;9.486;2023-03-21T02:13:25;95949.31;;;10.61;62.00
37892;BME280;45797;47.466;9.486;2023-03-21T02:29:58;95944.25;;;10.34;62.69
37892;BME280;45797;47.466;9.486;2023-03-21T02:40:44;95929.31;;;10.21;62.70
37892;BME280;45797;47.466;9.486;2023-03-21T02:50:51;95927.66;;;10.08;63.33
37892;BME280;45797;47.466;9.486;2023-03-21T02:55:54;95921.25;;;9.99;63.35
37892;BME280;45797;47.466;9.486;2023-03-21T03:00:57;95917.38;;;9.92;63.23
37892;BME280;45797;47.466;9.486;2023-03-21T03:06:17;95923.44;;;9.80;63.51
37892;BME280;45797;47.466;9.486;2023-03-21T03:21:57;95928.22;;;9.60;63.87
37892;BME280;45797;47.466;9.486;2023-03-21T03:27:07;95932.28;;;9.52;63.83
37892;BME280;45797;47.466;9.486;2023-03-21T03:37:20;95939.16;;;9.40;64.10
37892;BME280;45797;47.466;9.486;2023-03-21T03:42:29;95937.66;;;9.36;64.21
37892;BME280;45797;47.466;9.486;2023-03-21T03:47:53;95940.88;;;9.27;64.35
37892;BME280;45797;47.466;9.486;2023-03-21T03:58:34;95938.09;;;9.15;64.24
37892;BME280;45797;47.466;9.486;2023-03-21T04:03:37;95932.53;;;9.07;64.28
37892;BME280;45797;47.466;9.486;2023-03-21T04:08:47;95937.97;;;9.04;64.45
37892;BME280;45797;47.466;9.486;2023-03-21T04:13:49;95938.16;;;9.01;64.29
37892;BME280;45797;47.466;9.486;2023-03-21T04:18:57;95951.97;;;9.03;64.56
37892;BME280;45797;47.466;9.486;2023-03-21T04:23:57;95941.72;;;9.00;64.77
37892;BME280;45797;47.466;9.486;2023-03-21T04:29:01;95941.63;;;9.02;64.43
37892;BME280;45797;47.466;9.486;2023-03-21T04:40:02;95933.88;;;9.00;64.43
37892;BME280;45797;47.466;9.486;2023-03-21T04:45:25;95924.34;;;8.99;64.57
37892;BME280;45797;47.466;9.486;2023-03-21T04:50:32;95924.69;;;9.07;64.45
37892;BME280;45797;47.466;9.486;2023-03-21T04:55:33;95920.75;;;9.14;64.03
37892;BME280;45797;47.466;9.486;2023-03-21T05:00:35;95920.38;;;9.21;63.96
37892;BME280;45797;47.466;9.486;2023-03-21T05:05:38;95921.56;;;9.29;64.04
37892;BME280;45797;47.466;9.486;2023-03-21T05:10:39;95913.84;;;9.40;63.79
37892;BME280;45797;47.466;9.486;2023-03-21T05:15:50;95918.75;;;9.45;63.74
37892;BME280;45797;47.466;9.486;2023-03-21T05:20:56;95913.47;;;9.59;63.60
37892;BME280;45797;47.466;9.486;2023-03-21T05:26:07;95903.34;;;9.67;63.24
37892;BME280;45797;47.466;9.486;2023-03-21T05:31:31;95899.06;;;9.79;63.54
37892;BME280;45797;47.466;9.486;2023-03-21T05:36:40;95902.72;;;9.89;63.09
37892;BME280;45797;47.466;9.486;2023-03-21T05:41:52;95902.72;;;10.02;63.20
37892;BME280;45797;47.466;9.486;2023-03-21T05:46:53;95913.41;;;10.12;63.03
37892;BME280;45797;47.466;9.486;2023-03-21T05:51:59;95908.28;;;10.23;63.21
37892;BME280;45797;47.466;9.486;2023-03-21T05:56:59;95906.09;;;10.29;62.94
37892;BME280;45797;47.466;9.486;2023-03-21T06:02:27;95912.38;;;10.40;63.04
37892;BME280;45797;47.466;9.486;2023-03-21T06:07:31;95900.75;;;10.44;62.88
37892;BME280;45797;47.466;9.486;2023-03-21T06:12:32;95912.75;;;10.59;62.95
37892;BME280;45797;47.466;9.486;2023-03-21T06:17:49;95912.84;;;10.70;62.73
37892;BME280;45797;47.466;9.486;2023-03-21T06:22:51;95924.25;;;10.82;62.34
37892;BME280;45797;47.466;9.486;2023-03-21T06:27:51;95935.47;;;10.84;62.49
37892;BME280;45797;47.466;9.486;2023-03-21T06:33:03;95944.19;;;10.72;62.92
37892;BME280;45797;47.466;9.486;2023-03-21T06:38:03;95944.56;;;10.78;62.86
37892;BME280;45797;47.466;9.486;2023-03-21T06:43:16;95937.66;;;10.90;62.96
37892;BME280;45797;47.466;9.486;2023-03-21T06:48:21;95932.19;;;10.93;63.18
37892;BME280;45797;47.466;9.486;2023-03-21T06:53:24;95938.25;;;10.94;63.22
37892;BME280;45797;47.466;9.486;2023-03-21T06:58:52;95947.38;;;11.01;62.94
37892;BME280;45797;47.466;9.486;2023-03-21T07:04:11;95945.03;;;11.09;63.01
37892;BME280;45797;47.466;9.486;2023-03-21T07:09:12;95953.25;;;11.28;62.59
37892;BME280;45797;47.466;9.486;2023-03-21T07:14:12;95945.22;;;11.42;62.19
37892;BME280;45797;47.466;9.486;2023-03-21T07:19:15;95933.50;;;11.59;62.23
37892;BME280;45797;47.466;9.486;2023-03-21T07:24:34;95928.66;;;11.77;61.99
37892;BME280;45797;47.466;9.486;2023-03-21T07:29:43;95926.63;;;12.05;60.94
37892;BME280;45797;47.466;9.486;2023-03-21T07:34:43;95923.53;;;12.22;61.63
37892;BME280;45797;47.466;9.486;2023-03-21T07:39:43;95936.59;;;12.46;60.79
37892;BME280;45797;47.466;9.486;2023-03-21T07:44:51;95936.84;;;12.43;60.99
37892;BME280;45797;47.466;9.486;2023-03-21T07:49:55;95944.84;;;12.41;61.24
37892;BME280;45797;47.466;9.486;2023-03-21T07:54:56;95945.88;;;12.50;61.10
37892;BME280;45797;47.466;9.486;2023-03-21T07:59:57;95943.63;;;12.68;60.83
37892;BME280;45797;47.466;9.486;2023-03-21T08:04:57;95941.94;;;13.00;60.57
37892;BME280;45797;47.466;9.486;2023-03-21T08:09:58;95937.63;;;13.22;60.00
37892;BME280;45797;47.466;9.486;2023-03-21T08:15:02;95932.56;;;13.41;59.62
37892;BME280;45797;47.466;9.486;2023-03-21T08:20:07;95937.56;;;13.55;59.34
37892;BME280;45797;47.466;9.486;2023-03-21T08:25:10;95929.22;;;13.71;59.67
37892;BME280;45797;47.466;9.486;2023-03-21T08:30:15;95923.06;;;13.82;59.35
37892;BME280;45797;47.466;9.486;2023-03-21T08:35:18;95917.72;;;13.72;59.49
37892;BME280;45797;47.466;9.486;2023-03-21T08:40:21;95917.16;;;13.68;59.53
37892;BME280;45797;47.466;9.486;2023-03-21T08:45:23;95910.84;;;13.81;59.29
37892;BME280;45797;47.466;9.486;2023-03-21T08:50:26;95914.94;;;14.06;59.17
37892;BME280;45797;47.466;9.486;2023-03-21T08:55:33;95906.09;;;14.37;58.34
37892;BME280;45797;47.466;9.486;2023-03-21T09:00:35;95900.00;;;14.67;57.60
37892;BME280;45797;47.466;9.486;2023-03-21T09:05:38;95902.41;;;14.70;57.60
37892;BME280;45797;47.466;9.486;2023-03-21T09:10:58;95903.66;;;14.76;57.61
37892;BME280;45797;47.466;9.486;2023-03-21T09:16:01;95903.47;;;14.98;57.38
37892;BME280;45797;47.466;9.486;2023-03-21T09:21:13;95905.00;;;15.01;57.27
37892;BME280;45797;47.466;9.486;2023-03-21T09:26:16;95904.16;;;15.00;57.54
37892;BME280;45797;47.466;9.486;2023-03-21T09:31:23;95907.63;;;15.01;57.95
37892;BME280;45797;47.466;9.486;2023-03-21T09:36:25;95907.63;;;15.01;57.75
37892;BME280;45797;47.466;9.486;2023-03-21T09:46:53;95895.97;;;15.13;56.79
37892;BME280;45797;47.466;9.486;2023-03-21T09:51:58;95894.06;;;15.34;56.61
37892;BME280;45797;47.466;9.486;2023-03-21T09:57:09;95889.50;;;15.46;56.61
37892;BME280;45797;47.466;9.486;2023-03-21T10:02:46;95884.38;;;15.54;56.32
37892;BME280;45797;47.466;9.486;2023-03-21T10:07:56;95870.91;;;15.67;56.00
37892;BME280;45797;47.466;9.486;2023-03-21T10:12:57;95874.66;;;15.74;56.02
37892;BME280;45797;47.466;9.486;2023-03-21T10:18:05;95867.97;;;15.89;55.73
37892;BME280;45797;47.466;9.486;2023-03-21T10:23:14;95878.63;;;16.17;55.18
37892;BME280;45797;47.466;9.486;2023-03-21T10:28:22;95867.63;;;16.31;54.80
37892;BME280;45797;47.466;9.486;2023-03-21T10:33:28;95875.41;;;16.23;55.28
37892;BME280;45797;47.466;9.486;2023-03-21T10:38:31;95869.03;;;16.16;55.12
37892;BME280;45797;47.466;9.486;2023-03-21T10:43:40;95869.53;;;16.29;54.37
37892;BME280;45797;47.466;9.486;2023-03-21T10:48:42;95869.75;;;16.55;54.00
37892;BME280;45797;47.466;9.486;2023-03-21T10:53:58;95862.88;;;16.99;53.68
37892;BME280;45797;47.466;9.486;2023-03-21T10:59:01;95858.88;;;17.13;53.16
37892;BME280;45797;47.466;9.486;2023-03-21T11:04:13;95858.53;;;17.26;53.02
37892;BME280;45797;47.466;9.486;2023-03-21T11:09:17;95861.56;;;17.31;52.45
37892;BME280;45797;47.466;9.486;2023-03-21T11:14:26;95867.34;;;17.44;52.52
37892;BME280;45797;47.466;9.486;2023-03-21T11:19:35;95859.44;;;17.88;51.53
37892;BME280;45797;47.466;9.486;2023-03-21T11:24:49;95863.34;;;18.19;51.21
37892;BME280;45797;47.466;9.486;2023-03-21T11:29:55;95860.09;;;18.34;50.54
37892;BME280;45797;47.466;9.486;2023-03-21T11:35:00;95854.91;;;18.50;50.46
37892;BME280;45797;47.466;9.486;2023-03-21T11:45:28;95843.78;;;18.80;50.22
37892;BME280;45797;47.466;9.486;2023-03-21T11:50:33;95835.06;;;19.04;49.14
37892;BME280;45797;47.466;9.486;2023-03-21T11:56:15;95827.09;;;19.04;49.27
37892;BME280;45797;47.466;9.486;2023-03-21T12:33:58;95780.38;;;19.44;48.49
37892;BME280;45797;47.466;9.486;2023-03-21T12:39:20;95780.84;;;19.48;48.45
37892;BME280;45797;47.466;9.486;2023-03-21T12:44:25;95784.03;;;19.59;48.31
37892;BME280;45797;47.466;9.486;2023-03-21T12:49:46;95770.91;;;19.66;48.41
37892;BME280;45797;47.466;9.486;2023-03-21T12:55:17;95776.41;;;19.73;47.68
37892;BME280;45797;47.466;9.486;2023-03-21T13:00:24;95769.91;;;19.91;47.61
37892;BME280;45797;47.466;9.486;2023-03-21T13:05:51;95756.59;;;19.91;47.88
37892;BME280;45797;47.466;9.486;2023-03-21T13:10:54;95750.56;;;20.14;47.32
37892;BME280;45797;47.466;9.486;2023-03-21T13:32:38;95736.06;;;20.24;47.27
37892;BME280;45797;47.466;9.486;2023-03-21T13:37:51;95729.06;;;20.32;47.25
37892;BME280;45797;47.466;9.486;2023-03-21T13:42:57;95720.22;;;20.47;46.71
37892;BME280;45797;47.466;9.486;2023-03-21T13:48:04;95705.53;;;20.51;46.58
37892;BME280;45797;47.466;9.486;2023-03-21T13:53:26;95706.13;;;20.70;46.58
37892;BME280;45797;47.466;9.486;2023-03-21T14:04:09;95709.69;;;20.85;46.30
37892;BME280;45797;47.466;9.486;2023-03-21T14:14:50;95702.34;;;20.87;46.12
37892;BME280;45797;47.466;9.486;2023-03-21T14:25:02;95694.50;;;20.63;46.49
37892;BME280;45797;47.466;9.486;2023-03-21T14:30:04;95681.78;;;20.73;46.17
37892;BME280;45797;47.466;9.486;2023-03-21T14:35:17;95681.75;;;20.81;46.01
37892;BME280;45797;47.466;9.486;2023-03-21T14:40:25;95682.28;;;20.99;45.67
37892;BME280;45797;47.466;9.486;2023-03-21T14:45:27;95675.78;;;21.02;45.67
37892;BME280;45797;47.466;9.486;2023-03-21T14:50:54;95672.06;;;20.88;45.83
37892;BME280;45797;47.466;9.486;2023-03-21T14:56:00;95673.53;;;20.68;46.30
37892;BME280;45797;47.466;9.486;2023-03-21T15:01:03;95665.81;;;20.42;47.26
37892;BME280;45797;47.466;9.486;2023-03-21T15:06:10;95656.44;;;20.23;46.94
37892;BME280;45797;47.466;9.486;2023-03-21T15:11:12;95666.66;;;20.03;47.31
37892;BME280;45797;47.466;9.486;2023-03-21T15:16:14;95665.25;;;19.76;47.56
37892;BME280;45797;47.466;9.486;2023-03-21T15:21:37;95667.25;;;19.50;47.63
37892;BME280;45797;47.466;9.486;2023-03-21T15:26:39;95655.31;;;19.37;47.59
37892;BME280;45797;47.466;9.486;2023-03-21T15:31:46;95659.63;;;19.38;47.52
37892;BME280;45797;47.466;9.486;2023-03-21T15:36:56;95656.00;;;19.56;47.70
37892;BME280;45797;47.466;9.486;2023-03-21T15:42:31;95654.16;;;19.64;47.16
37892;BME280;45797;47.466;9.486;2023-03-21T15:48:02;95653.13;;;19.65;47.12
37892;BME280;45797;47.466;9.486;2023-03-21T15:53:17;95646.31;;;19.55;47.25
37892;BME280;45797;47.466;9.486;2023-03-21T15:58:25;95653.00;;;19.18;47.68
37892;BME280;45797;47.466;9.486;2023-03-21T16:03:36;95654.50;;;18.88;48.10
37892;BME280;45797;47.466;9.486;2023-03-21T16:14:08;95644.50;;;18.58;48.83
37892;BME280;45797;47.466;9.486;2023-03-21T16:19:10;95645.94;;;18.44;48.60
37892;BME280;45797;47.466;9.486;2023-03-21T16:24:20;95653.38;;;18.24;49.27
37892;BME280;45797;47.466;9.486;2023-03-21T16:29:23;95662.47;;;18.21;49.22
37892;BME280;45797;47.466;9.486;2023-03-21T16:34:24;95660.78;;;18.12;49.01
37892;BME280;45797;47.466;9.486;2023-03-21T16:39:27;95668.72;;;18.04;49.21
37892;BME280;45797;47.466;9.486;2023-03-21T16:44:28;95666.34;;;17.93;50.23
37892;BME280;45797;47.466;9.486;2023-03-21T16:49:30;95663.97;;;17.82;49.90
37892;BME280;45797;47.466;9.486;2023-03-21T16:54:42;95667.50;;;17.64;50.70
37892;BME280;45797;47.466;9.486;2023-03-21T16:59:51;95663.75;;;17.49;50.95
37892;BME280;45797;47.466;9.486;2023-03-21T17:05:12;95666.75;;;17.28;51.29
37892;BME280;45797;47.466;9.486;2023-03-21T17:10:21;95681.38;;;17.14;51.91
37892;BME280;45797;47.466;9.486;2023-03-21T17:15:22;95679.22;;;16.92;52.08
37892;BME280;45797;47.466;9.486;2023-03-21T17:20:30;95679.22;;;16.74;52.29
37892;BME280;45797;47.466;9.486;2023-03-21T17:25:42;95682.13;;;16.53;52.35
37892;BME280;45797;47.466;9.486;2023-03-21T17:30:43;95685.72;;;16.35;53.02
37892;BME280;45797;47.466;9.486;2023-03-21T17:35:44;95691.13;;;16.15;53.13
37892;BME280;45797;47.466;9.486;2023-03-21T17:40:46;95693.56;;;15.99;53.09
37892;BME280;45797;47.466;9.486;2023-03-21T17:45:50;95697.13;;;15.80;53.34
37892;BME280;45797;47.466;9.486;2023-03-21T17:51:05;95696.09;;;15.63;53.40
37892;BME280;45797;47.466;9.486;2023-03-21T17:56:20;95702.31;;;15.53;53.49
37892;BME280;45797;47.466;9.486;2023-03-21T18:01:22;95703.16;;;15.43;53.55
37892;BME280;45797;47.466;9.486;2023-03-21T18:06:25;95697.22;;;15.32;53.74
37892;BME280;45797;47.466;9.486;2023-03-21T18:11:26;95707.13;;;15.20;53.41
37892;BME280;45797;47.466;9.486;2023-03-21T18:16:26;95714.91;;;15.12;53.57
37892;BME280;45797;47.466;9.486;2023-03-21T18:21:28;95716.28;;;15.06;53.46
37892;BME280;45797;47.466;9.486;2023-03-21T18:26:32;95714.38;;;14.99;53.44
37892;BME280;45797;47.466;9.486;2023-03-21T18:31:33;95714.06;;;14.92;53.18
37892;BME280;45797;47.466;9.486;2023-03-21T18:36:34;95717.25;;;14.86;52.54
37892;BME280;45797;47.466;9.486;2023-03-21T18:41:53;95718.09;;;14.77;53.05
37892;BME280;45797;47.466;9.486;2023-03-21T18:46:58;95726.72;;;14.69;52.81
37892;BME280;45797;47.466;9.486;2023-03-21T18:51:59;95729.06;;;14.63;52.76
37892;BME280;45797;47.466;9.486;2023-03-21T18:57:01;95724.47;;;14.55;52.33
37892;BME280;45797;47.466;9.486;2023-03-21T19:02:02;95727.91;;;14.46;52.71
37892;BME280;45797;47.466;9.486;2023-03-21T19:07:02;95732.28;;;14.36;52.64
37892;BME280;45797;47.466;9.486;2023-03-21T19:12:08;95732.00;;;14.29;52.51
37892;BME280;45797;47.466;9.486;2023-03-21T19:17:08;95731.97;;;14.19;52.59
37892;BME280;45797;47.466;9.486;2023-03-21T19:22:09;95733.50;;;14.12;52.22
37892;BME280;45797;47.466;9.486;2023-03-21T19:27:11;95737.22;;;14.10;51.58
37892;BME280;45797;47.466;9.486;2023-03-21T19:32:14;95733.31;;;14.04;51.91
37892;BME280;45797;47.466;9.486;2023-03-21T19:37:18;95728.31;;;14.01;51.62
37892;BME280;45797;47.466;9.486;2023-03-21T19:42:38;95735.78;;;13.96;51.25
37892;BME280;45797;47.466;9.486;2023-03-21T19:47:46;95740.78;;;13.99;51.03
37892;BME280;45797;47.466;9.486;2023-03-21T19:52:48;95731.22;;;13.98;51.13
37892;BME280;45797;47.466;9.486;2023-03-21T19:57:54;95730.25;;;13.99;51.03
37892;BME280;45797;47.466;9.486;2023-03-21T20:03:01;95733.16;;;13.96;50.84
37892;BME280;45797;47.466;9.486;2023-03-21T20:08:05;95737.59;;;13.95;50.59
37892;BME280;45797;47.466;9.486;2023-03-21T20:13:21;95739.53;;;13.93;50.54
37892;BME280;45797;47.466;9.486;2023-03-21T20:18:21;95737.00;;;13.92;50.78
37892;BME280;45797;47.466;9.486;2023-03-21T20:23:26;95743.00;;;13.94;50.50
37892;BME280;45797;47.466;9.486;2023-03-21T20:28:26;95738.94;;;13.90;50.44
37892;BME280;45797;47.466;9.486;2023-03-21T20:33:28;95736.56;;;13.87;50.45
37892;BME280;45797;47.466;9.486;2023-03-21T20:38:31;95730.47;;;13.86;50.65
37892;BME280;45797;47.466;9.486;2023-03-21T20:43:33;95733.81;;;13.88;50.62
37892;BME280;45797;47.466;9.486;2023-03-21T20:48:35;95728.16;;;13.93;50.36
37892;BME280;45797;47.466;9.486;2023-03-21T20:53:40;95736.34;;;13.99;50.10
37892;BME280;45797;47.466;9.486;2023-03-21T20:58:40;95728.19;;;14.03;49.44
37892;BME280;45797;47.466;9.486;2023-03-21T21:03:41;95726.13;;;14.06;49.70
37892;BME280;45797;47.466;9.486;2023-03-21T21:08:44;95726.09;;;13.96;49.84
37892;BME280;45797;47.466;9.486;2023-03-21T21:13:47;95727.75;;;13.97;50.00
37892;BME280;45797;47.466;9.486;2023-03-21T21:18:47;95725.94;;;13.98;50.21
37892;BME280;45797;47.466;9.486;2023-03-21T21:23:49;95723.31;;;13.98;50.30
37892;BME280;45797;47.466;9.486;2023-03-21T21:28:56;95723.84;;;13.92;50.58
37892;BME280;45797;47.466;9.486;2023-03-21T21:34:09;95716.34;;;13.87;50.54
37892;BME280;45797;47.466;9.486;2023-03-21T21:39:12;95709.78;;;13.82;50.71
37892;BME280;45797;47.466;9.486;2023-03-21T21:44:16;95712.97;;;13.76;51.23
37892;BME280;45797;47.466;9.486;2023-03-21T21:49:21;95705.03;;;13.66;50.91
37892;BME280;45797;47.466;9.486;2023-03-21T21:54:21;95704.41;;;13.53;50.79
37892;BME280;45797;47.466;9.486;2023-03-21T21:59:23;95706.84;;;13.44;51.40
37892;BME280;45797;47.466;9.486;2023-03-21T22:04:25;95709.19;;;13.38;51.16
37892;BME280;45797;47.466;9.486;2023-03-21T22:09:31;95707.31;;;13.29;51.49
37892;BME280;45797;47.466;9.486;2023-03-21T22:14:31;95707.97;;;13.21;52.20
37892;BME280;45797;47.466;9.486;2023-03-21T22:19:31;95700.94;;;13.10;52.03
37892;BME280;45797;47.466;9.486;2023-03-21T22:24:34;95721.38;;;13.07;52.28
37892;BME280;45797;47.466;9.486;2023-03-21T22:29:36;95723.59;;;13.02;51.99
37892;BME280;45797;47.466;9.486;2023-03-21T22:34:41;95715.81;;;13.00;52.14
37892;BME280;45797;47.466;9.486;2023-03-21T22:39:42;95719.16;;;13.02;52.31
37892;BME280;45797;47.466;9.486;2023-03-21T22:44:42;95712.56;;;13.08;52.30
37892;BME280;45797;47.466;9.486;2023-03-21T22:49:42;95708.72;;;13.12;52.00
37892;BME280;45797;47.466;9.486;2023-03-21T22:54:51;95704.16;;;13.14;51.90
37892;BME280;45797;47.466;9.486;2023-03-21T23:00:04;95706.78;;;13.14;51.98
37892;BME280;45797;47.466;9.486;2023-03-21T23:05:15;95716.69;;;13.22;51.81
37892;BME280;45797;47.466;9.486;2023-03-21T23:10:16;95712.41;;;13.21;52.11
37892;BME280;45797;47.466;9.486;2023-03-21T23:15:17;95713.28;;;13.31;51.94
37892;BME280;45797;47.466;9.486;2023-03-21T23:20:42;95702.75;;;13.31;51.94
37892;BME280;45797;47.466;9.486;2023-03-21T23:25:45;95692.16;;;13.42;51.94
37892;BME280;45797;47.466;9.486;2023-03-21T23:30:45;95688.19;;;13.48;51.56
37892;BME280;45797;47.466;9.486;2023-03-21T23:35:45;95686.56;;;13.56;51.68
37892;BME280;45797;47.466;9.486;2023-03-21T23:40:47;95675.50;;;13.62;51.54
37892;BME280;45797;47.466;9.486;2023-03-21T23:45:48;95673.31;;;13.67;51.44
37892;BME280;45797;47.466;9.486;2023-03-21T23:50:55;95663.34;;;13.71;51.59
37892;BME280;45797;47.466;9.486;2023-03-21T23:55:55;95657.69;;;13.76;51.35
